Time;durP1;ratioP1;P1;durP2;ratioP2;P2;SDS_P1;SDS_P2;PMS_P1;PMS_P2;Temp;Humidity;BMP_temperature;BMP_pressure;BME280_temperature;BME280_humidity;BME280_pressure;Samples;Min_cycle;Max_cycle;Signal;HPM_P1;HPM_P2
2023/04/22 00:01:43;;;;;;;32.97;16.75;;;;;;;;;;5066120;28;20026;-58
2023/04/22 00:04:09;;;;;;;27.83;16.45;;;;;;;;;;5065907;28;20017;-59
2023/04/22 00:06:35;;;;;;;28.17;15.60;;;;;;;;;;5062606;28;20134;-59
2023/04/22 00:09:00;;;;;;;24.73;15.38;;;;;;;;;;5063040;28;20127;-59
2023/04/22 00:11:26;;;;;;;26.77;16.85;;;;;;;;;;5062878;28;20040;-59
2023/04/22 00:13:51;;;;;;;27.80;16.63;;;;;;;;;;5062613;28;20028;-59
2023/04/22 00:16:16;;;;;;;25.70;16.40;;;;;;;;;;5062628;28;20393;-59
2023/04/22 00:18:42;;;;;;;30.02;16.75;;;;;;;;;;5062654;28;20052;-59
2023/04/22 00:21:07;;;;;;;25.35;16.50;;;;;;;;;;5062640;28;20056;-58
2023/04/22 00:23:33;;;;;;;27.10;16.45;;;;;;;;;;5062584;28;20032;-60
2023/04/22 00:25:58;;;;;;;30.38;15.55;;;;;;;;;;5062354;28;20147;-56
2023/04/22 00:28:24;;;;;;;27.88;16.52;;;;;;;;;;5062605;28;20035;-60
2023/04/22 00:30:49;;;;;;;26.40;15.90;;;;;;;;;;5062462;28;20519;-59
2023/04/22 00:33:14;;;;;;;27.25;15.80;;;;;;;;;;5062195;28;20052;-58
2023/04/22 00:35:39;;;;;;;23.20;15.57;;;;;;;;;;5062383;28;20499;-58
2023/04/22 00:38:05;;;;;;;22.42;14.65;;;;;;;;;;5064396;28;20031;-58
2023/04/22 00:40:30;;;;;;;25.92;15.98;;;;;;;;;;5065284;28;20377;-56
2023/04/22 00:42:55;;;;;;;24.40;15.52;;;;;;;;;;5065598;28;20017;-57
2023/04/22 00:45:21;;;;;;;32.15;16.73;;;;;;;;;;5064947;28;20021;-59
2023/04/22 00:47:47;;;;;;;27.55;16.63;;;;;;;;;;5065041;28;20020;-57
2023/04/22 00:50:13;;;;;;;29.98;17.05;;;;;;;;;;5064910;28;20028;-57
2023/04/22 00:52:38;;;;;;;28.35;19.58;;;;;;;;;;5065278;28;20369;-59
2023/04/22 00:55:04;;;;;;;27.80;17.13;;;;;;;;;;5065030;28;20396;-59
2023/04/22 00:57:33;;;;;;;35.60;18.95;;;;;;;;;;5064741;28;20483;-58
2023/04/22 00:59:58;;;;;;;24.10;15.30;;;;;;;;;;5065129;28;20177;-59
2023/04/22 01:02:24;;;;;;;29.63;17.83;;;;;;;;;;5064804;28;20146;-60
2023/04/22 01:04:49;;;;;;;23.52;16.02;;;;;;;;;;5064760;28;20458;-57
2023/04/22 01:07:14;;;;;;;25.92;16.35;;;;;;;;;;5064653;28;20051;-57
2023/04/22 01:09:40;;;;;;;21.70;13.65;;;;;;;;;;5064501;28;20453;-59
2023/04/22 01:12:05;;;;;;;24.90;14.60;;;;;;;;;;5064458;28;20031;-59
2023/04/22 01:14:31;;;;;;;28.42;17.52;;;;;;;;;;5064622;28;20070;-59
2023/04/22 01:16:56;;;;;;;28.67;14.25;;;;;;;;;;5064808;28;20033;-59
2023/04/22 01:19:22;;;;;;;32.97;18.58;;;;;;;;;;5065072;28;20051;-59
2023/04/22 01:21:49;;;;;;;33.53;18.73;;;;;;;;;;5064511;28;20029;-58
2023/04/22 01:24:14;;;;;;;27.98;17.08;;;;;;;;;;5064818;28;20021;-59
2023/04/22 01:26:40;;;;;;;32.05;20.83;;;;;;;;;;5064695;28;20024;-59
2023/04/22 01:29:05;;;;;;;29.17;21.20;;;;;;;;;;5064869;28;20063;-59
2023/04/22 01:31:30;;;;;;;32.20;19.75;;;;;;;;;;5064748;28;20025;-58
2023/04/22 01:33:56;;;;;;;26.60;19.27;;;;;;;;;;5064691;28;20056;-59
2023/04/22 01:36:22;;;;;;;28.05;21.77;;;;;;;;;;5063995;28;20025;-58
2023/04/22 01:38:47;;;;;;;27.63;20.33;;;;;;;;;;5061593;28;20403;-59
2023/04/22 01:41:13;;;;;;;30.67;23.73;;;;;;;;;;5064277;28;20464;-59
2023/04/22 01:43:39;;;;;;;26.15;17.80;;;;;;;;;;5064900;28;20016;-58
2023/04/22 01:46:05;;;;;;;28.77;19.50;;;;;;;;;;5064653;28;20020;-60
2023/04/22 01:48:30;;;;;;;28.33;17.23;;;;;;;;;;5064315;28;20025;-58
2023/04/22 01:50:55;;;;;;;26.02;18.08;;;;;;;;;;5064603;28;20052;-59
2023/04/22 01:53:20;;;;;;;23.67;16.13;;;;;;;;;;5063208;28;20384;-58
2023/04/22 01:55:46;;;;;;;24.17;18.35;;;;;;;;;;5064197;28;20496;-60
2023/04/22 01:58:11;;;;;;;28.70;19.65;;;;;;;;;;5064153;28;20020;-59
2023/04/22 02:00:36;;;;;;;18.60;15.23;;;;;;;;;;5064345;28;20142;-58
2023/04/22 02:03:02;;;;;;;23.88;17.85;;;;;;;;;;5064213;28;20023;-59
2023/04/22 02:05:27;;;;;;;22.95;15.90;;;;;;;;;;5064257;28;20094;-55
2023/04/22 02:07:53;;;;;;;24.80;17.60;;;;;;;;;;5062781;28;20488;-58
2023/04/22 02:10:18;;;;;;;30.38;20.27;;;;;;;;;;5063904;28;20045;-55
2023/04/22 02:12:43;;;;;;;29.25;23.35;;;;;;;;;;5064110;28;20025;-59
2023/04/22 02:15:09;;;;;;;27.05;19.90;;;;;;;;;;5063928;28;20476;-58
2023/04/22 02:17:34;;;;;;;28.88;18.80;;;;;;;;;;5064335;28;20098;-56
2023/04/22 02:20:00;;;;;;;29.00;17.95;;;;;;;;;;5063849;28;20052;-58
2023/04/22 02:22:28;;;;;;;26.27;19.80;;;;;;;;;;5066844;28;20019;-59
2023/04/22 02:24:53;;;;;;;31.67;18.67;;;;;;;;;;5067927;28;20028;-60
2023/04/22 02:27:18;;;;;;;27.58;20.15;;;;;;;;;;5068311;28;20036;-58
2023/04/22 02:29:43;;;;;;;28.05;19.45;;;;;;;;;;5067831;28;20098;-58
2023/04/22 02:32:08;;;;;;;28.85;19.08;;;;;;;;;;5068229;28;20024;-59
2023/04/22 02:34:35;;;;;;;24.50;18.08;;;;;;;;;;5067487;28;20033;-59
2023/04/22 02:37:00;;;;;;;26.27;18.85;;;;;;;;;;5068008;28;20335;-60
2023/04/22 02:39:25;;;;;;;24.05;17.73;;;;;;;;;;5067651;28;20024;-57
2023/04/22 02:41:51;;;;;;;24.60;18.48;;;;;;;;;;5067589;28;20475;-58
2023/04/22 02:44:16;;;;;;;25.63;20.00;;;;;;;;;;5067440;28;20020;-58
2023/04/22 02:46:41;;;;;;;24.15;20.33;;;;;;;;;;5067409;28;20032;-59
2023/04/22 02:49:06;;;;;;;26.63;18.83;;;;;;;;;;5067378;28;20311;-57
2023/04/22 02:51:32;;;;;;;26.35;20.23;;;;;;;;;;5066688;28;20078;-58
2023/04/22 02:53:57;;;;;;;25.23;19.88;;;;;;;;;;5067362;28;20059;-60
2023/04/22 02:56:22;;;;;;;24.55;21.23;;;;;;;;;;5067014;28;20036;-60
2023/04/22 02:58:48;;;;;;;25.17;20.25;;;;;;;;;;5067136;28;20156;-59
2023/04/22 03:01:13;;;;;;;33.00;23.52;;;;;;;;;;5067118;28;20531;-59
2023/04/22 03:03:38;;;;;;;25.25;20.88;;;;;;;;;;5067000;28;20024;-60
2023/04/22 03:06:03;;;;;;;21.27;16.45;;;;;;;;;;5065511;28;20067;-58
2023/04/22 03:08:29;;;;;;;27.15;20.20;;;;;;;;;;5066821;28;20126;-60
2023/04/22 03:10:54;;;;;;;28.85;22.35;;;;;;;;;;5066859;28;20488;-56
2023/04/22 03:13:19;;;;;;;26.60;18.00;;;;;;;;;;5065635;28;20112;-57
2023/04/22 03:15:44;;;;;;;24.02;16.08;;;;;;;;;;5066689;28;20125;-59
2023/04/22 03:18:10;;;;;;;24.80;18.73;;;;;;;;;;5066553;28;20365;-58
2023/04/22 03:20:35;;;;;;;26.85;18.15;;;;;;;;;;5066979;28;20020;-56
2023/04/22 03:23:01;;;;;;;32.67;21.20;;;;;;;;;;5066653;28;20433;-58
2023/04/22 03:25:26;;;;;;;28.27;19.58;;;;;;;;;;5067252;28;20029;-59
2023/04/22 03:27:51;;;;;;;26.55;18.05;;;;;;;;;;5067108;28;20036;-59
2023/04/22 03:30:17;;;;;;;24.38;21.10;;;;;;;;;;5066762;28;20075;-59
2023/04/22 03:32:42;;;;;;;26.88;23.67;;;;;;;;;;5066083;28;20380;-58
2023/04/22 03:35:07;;;;;;;32.47;24.55;;;;;;;;;;5066459;28;20109;-57
2023/04/22 03:37:33;;;;;;;25.55;17.80;;;;;;;;;;5066774;28;20020;-58
2023/04/22 03:39:58;;;;;;;29.25;21.48;;;;;;;;;;5067161;28;20020;-59
2023/04/22 03:42:23;;;;;;;29.33;19.35;;;;;;;;;;5066828;28;20166;-59
2023/04/22 03:44:48;;;;;;;27.05;18.10;;;;;;;;;;5067078;28;20324;-60
2023/04/22 03:47:14;;;;;;;35.55;26.65;;;;;;;;;;5066558;28;20024;-59
2023/04/22 03:49:39;;;;;;;29.08;24.13;;;;;;;;;;5066577;28;20478;-57
2023/04/22 03:52:04;;;;;;;31.00;26.25;;;;;;;;;;5066525;28;20028;-59
2023/04/22 03:54:30;;;;;;;35.88;25.92;;;;;;;;;;5066370;28;20029;-60
2023/04/22 03:56:55;;;;;;;38.30;27.63;;;;;;;;;;5066657;28;20413;-56
2023/04/22 03:59:20;;;;;;;30.70;24.10;;;;;;;;;;5066089;28;20025;-58
2023/04/22 04:01:46;;;;;;;29.48;23.27;;;;;;;;;;5066139;28;20016;-57
2023/04/22 04:04:11;;;;;;;29.45;25.52;;;;;;;;;;5066332;28;20059;-58
2023/04/22 04:06:37;;;;;;;30.45;20.17;;;;;;;;;;5066083;28;20040;-60
2023/04/22 04:09:02;;;;;;;30.25;23.05;;;;;;;;;;5065881;28;20379;-57
2023/04/22 04:11:28;;;;;;;32.88;24.58;;;;;;;;;;5065465;28;20075;-58
2023/04/22 04:13:53;;;;;;;29.88;25.27;;;;;;;;;;5066227;28;20020;-59
2023/04/22 04:16:19;;;;;;;27.65;22.33;;;;;;;;;;5065969;28;20490;-59
2023/04/22 04:18:44;;;;;;;23.83;20.17;;;;;;;;;;5066098;28;20533;-59
2023/04/22 04:21:28;;;;;;;31.92;20.17;;;;;;;;;;5065808;28;20032;-61
2023/04/22 04:23:53;;;;;;;27.60;22.52;;;;;;;;;;5065891;28;20354;-56
2023/04/22 04:26:19;;;;;;;20.50;16.27;;;;;;;;;;5065728;28;20086;-58
2023/04/22 04:28:44;;;;;;;23.58;17.70;;;;;;;;;;5065592;28;20480;-57
2023/04/22 04:31:09;;;;;;;17.58;12.40;;;;;;;;;;5066258;28;20294;-60
2023/04/22 04:33:35;;;;;;;28.60;17.55;;;;;;;;;;5065548;28;20021;-59
2023/04/22 04:36:01;;;;;;;19.33;14.02;;;;;;;;;;5065902;28;20098;-61
2023/04/22 04:38:27;;;;;;;17.05;11.73;;;;;;;;;;5065599;28;20020;-59
2023/04/22 04:40:53;;;;;;;18.98;12.23;;;;;;;;;;5065588;28;20681;-60
2023/04/22 04:43:18;;;;;;;18.40;11.38;;;;;;;;;;5065354;28;20032;-59
2023/04/22 04:45:45;;;;;;;23.13;11.65;;;;;;;;;;5064804;28;20269;-58
2023/04/22 04:48:13;;;;;;;17.77;12.60;;;;;;;;;;5065397;28;20024;-60
2023/04/22 04:50:42;;;;;;;14.30;9.93;;;;;;;;;;5063888;28;20528;-59
2023/04/22 04:53:08;;;;;;;16.83;10.00;;;;;;;;;;5063914;28;20051;-59
2023/04/22 04:55:33;;;;;;;14.15;8.88;;;;;;;;;;5064954;28;20033;-58
2023/04/22 04:57:58;;;;;;;14.27;8.75;;;;;;;;;;5065193;28;20023;-55
2023/04/22 05:00:24;;;;;;;18.77;9.35;;;;;;;;;;5065515;28;20487;-60
2023/04/22 05:02:49;;;;;;;16.25;8.98;;;;;;;;;;5065150;28;20024;-59
2023/04/22 05:05:15;;;;;;;14.85;8.20;;;;;;;;;;5063671;28;20497;-59
2023/04/22 05:07:40;;;;;;;13.80;8.20;;;;;;;;;;5065191;28;20086;-59
2023/04/22 05:10:05;;;;;;;11.90;7.80;;;;;;;;;;5064898;28;20052;-59
2023/04/22 05:12:31;;;;;;;16.30;6.93;;;;;;;;;;5065032;28;20185;-59
2023/04/22 05:14:56;;;;;;;14.00;7.05;;;;;;;;;;5064859;28;20114;-58
2023/04/22 05:17:21;;;;;;;12.40;7.38;;;;;;;;;;5064585;28;20024;-58
2023/04/22 05:19:47;;;;;;;9.35;6.35;;;;;;;;;;5064962;28;20027;-59
2023/04/22 05:22:12;;;;;;;12.35;7.18;;;;;;;;;;5065002;28;20029;-56
2023/04/22 05:24:37;;;;;;;9.10;5.82;;;;;;;;;;5064837;28;20372;-60
2023/04/22 05:27:02;;;;;;;14.38;6.25;;;;;;;;;;5065086;28;20017;-58
2023/04/22 05:29:28;;;;;;;9.85;6.22;;;;;;;;;;5064847;28;20021;-60
2023/04/22 05:31:53;;;;;;;9.48;5.93;;;;;;;;;;5064887;28;20021;-60
2023/04/22 05:34:18;;;;;;;12.68;5.88;;;;;;;;;;5064959;28;20472;-59
2023/04/22 05:36:44;;;;;;;11.80;5.43;;;;;;;;;;5064102;28;20059;-59
2023/04/22 05:39:09;;;;;;;8.63;4.97;;;;;;;;;;5065042;28;20021;-60
2023/04/22 05:41:34;;;;;;;7.60;4.93;;;;;;;;;;5064669;28;20059;-59
2023/04/22 05:44:00;;;;;;;12.15;5.57;;;;;;;;;;5064777;28;20020;-59
2023/04/22 05:46:25;;;;;;;9.70;5.30;;;;;;;;;;5064496;28;20074;-59
2023/04/22 05:48:50;;;;;;;8.75;5.68;;;;;;;;;;5064717;28;20763;-57
2023/04/22 05:51:16;;;;;;;13.60;5.15;;;;;;;;;;5064462;28;20135;-59
2023/04/22 05:53:41;;;;;;;12.13;5.45;;;;;;;;;;5065198;28;20028;-58
2023/04/22 05:56:06;;;;;;;14.48;5.20;;;;;;;;;;5065450;28;20029;-59
2023/04/22 05:58:32;;;;;;;10.88;5.05;;;;;;;;;;5068645;28;20111;-60
2023/04/22 06:00:57;;;;;;;13.43;5.38;;;;;;;;;;5068698;28;20426;-60
2023/04/22 06:03:22;;;;;;;11.75;4.78;;;;;;;;;;5068583;28;20075;-58
2023/04/22 06:05:48;;;;;;;8.80;5.07;;;;;;;;;;5068242;28;20036;-60
2023/04/22 06:08:13;;;;;;;7.75;5.13;;;;;;;;;;5068448;28;20024;-59
2023/04/22 06:10:38;;;;;;;18.77;6.28;;;;;;;;;;5068146;28;20044;-58
2023/04/22 06:13:04;;;;;;;14.60;5.65;;;;;;;;;;5068367;28;20023;-58
2023/04/22 06:15:29;;;;;;;12.13;5.00;;;;;;;;;;5068610;28;20036;-59
2023/04/22 06:17:54;;;;;;;8.80;5.82;;;;;;;;;;5068250;28;20607;-60
2023/04/22 06:20:20;;;;;;;11.83;6.37;;;;;;;;;;5068334;28;20047;-58
2023/04/22 06:22:45;;;;;;;9.40;5.50;;;;;;;;;;5068391;28;20328;-59
2023/04/22 06:25:10;;;;;;;18.40;6.05;;;;;;;;;;5067983;28;20114;-60
2023/04/22 06:27:36;;;;;;;9.57;5.67;;;;;;;;;;5067831;28;20431;-60
2023/04/22 06:30:02;;;;;;;20.08;5.97;;;;;;;;;;5067989;28;20260;-58
2023/04/22 06:32:27;;;;;;;12.65;5.90;;;;;;;;;;5068297;28;20016;-58
2023/04/22 06:34:52;;;;;;;8.82;5.15;;;;;;;;;;5067915;28;20316;-59
2023/04/22 06:37:18;;;;;;;12.00;5.97;;;;;;;;;;5067731;28;20468;-60
2023/04/22 06:39:43;;;;;;;11.95;5.43;;;;;;;;;;5067941;28;20113;-59
2023/04/22 06:42:08;;;;;;;8.73;5.65;;;;;;;;;;5068134;28;20028;-58
2023/04/22 06:44:34;;;;;;;16.23;6.10;;;;;;;;;;5068056;28;20111;-59
2023/04/22 06:46:59;;;;;;;10.07;5.90;;;;;;;;;;5067825;28;20456;-55
2023/04/22 06:49:24;;;;;;;14.48;5.40;;;;;;;;;;5067668;28;20261;-59
2023/04/22 06:51:50;;;;;;;11.68;5.35;;;;;;;;;;5067793;28;20024;-59
2023/04/22 06:54:15;;;;;;;8.57;5.22;;;;;;;;;;5067537;28;20070;-56
2023/04/22 06:56:40;;;;;;;6.80;5.28;;;;;;;;;;5068052;28;20035;-56
2023/04/22 06:59:06;;;;;;;10.88;5.07;;;;;;;;;;5067617;28;20031;-59
2023/04/22 07:01:32;;;;;;;12.05;5.40;;;;;;;;;;5067579;28;20012;-59
2023/04/22 07:03:57;;;;;;;18.50;5.38;;;;;;;;;;5067681;28;20025;-57
2023/04/22 07:06:22;;;;;;;16.05;7.97;;;;;;;;;;5067259;28;20500;-58
2023/04/22 07:08:47;;;;;;;11.65;5.70;;;;;;;;;;5067280;28;20236;-59
2023/04/22 07:11:13;;;;;;;9.60;5.20;;;;;;;;;;5067098;28;20044;-58
2023/04/22 07:13:38;;;;;;;9.07;5.23;;;;;;;;;;5067380;28;20662;-57
2023/04/22 07:16:04;;;;;;;8.88;5.05;;;;;;;;;;5067147;28;20269;-58
2023/04/22 07:18:29;;;;;;;10.00;5.63;;;;;;;;;;5064314;28;20062;-60
2023/04/22 07:20:54;;;;;;;9.47;5.17;;;;;;;;;;5099747;28;20017;-60
2023/04/22 07:23:20;;;;;;;10.18;5.25;;;;;;;;;;5067132;28;20249;-59
2023/04/22 07:25:45;;;;;;;7.45;4.72;;;;;;;;;;5066813;28;20073;-59
2023/04/22 07:28:10;;;;;;;12.98;5.57;;;;;;;;;;5067158;28;20028;-59
2023/04/22 07:30:36;;;;;;;10.65;5.22;;;;;;;;;;5066843;28;20025;-60
2023/04/22 07:33:01;;;;;;;13.40;4.97;;;;;;;;;;5067138;28;20020;-58
2023/04/22 07:35:27;;;;;;;13.27;5.45;;;;;;;;;;5066504;28;20728;-59
2023/04/22 07:37:53;;;;;;;13.65;5.30;;;;;;;;;;5066264;28;20099;-59
2023/04/22 07:40:18;;;;;;;7.82;4.97;;;;;;;;;;5066764;28;20053;-60
2023/04/22 07:42:44;;;;;;;10.98;5.22;;;;;;;;;;5066694;28;20028;-61
2023/04/22 07:45:10;;;;;;;14.95;5.22;;;;;;;;;;5066252;28;20050;-59
2023/04/22 07:47:35;;;;;;;10.60;4.55;;;;;;;;;;5066244;28;20744;-58
2023/04/22 07:50:00;;;;;;;10.70;4.40;;;;;;;;;;5066133;28;20020;-58
2023/04/22 07:52:26;;;;;;;8.95;4.90;;;;;;;;;;5066207;28;20031;-60
2023/04/22 07:54:51;;;;;;;6.72;4.30;;;;;;;;;;5066268;28;20336;-59
2023/04/22 07:57:16;;;;;;;8.20;4.70;;;;;;;;;;5066105;28;20392;-59
2023/04/22 07:59:42;;;;;;;8.37;4.60;;;;;;;;;;5065940;28;20019;-58
2023/04/22 08:02:07;;;;;;;8.23;4.77;;;;;;;;;;5063780;28;20241;-59
2023/04/22 08:04:32;;;;;;;7.97;4.43;;;;;;;;;;5065851;28;20052;-59
2023/04/22 08:06:57;;;;;;;7.85;4.07;;;;;;;;;;5066053;28;20319;-58
2023/04/22 08:09:23;;;;;;;7.27;4.37;;;;;;;;;;5066028;28;20395;-58
2023/04/22 08:11:48;;;;;;;10.50;4.65;;;;;;;;;;5079941;28;20292;-57
2023/04/22 08:14:13;;;;;;;7.80;4.40;;;;;;;;;;5065925;28;20012;-57
2023/04/22 08:16:41;;;;;;;7.47;4.17;;;;;;;;;;5066134;28;20017;-59
2023/04/22 08:19:06;;;;;;;8.43;4.68;;;;;;;;;;5065203;28;20241;-59
2023/04/22 08:21:31;;;;;;;8.80;4.83;;;;;;;;;;5065685;28;20104;-58
2023/04/22 08:23:57;;;;;;;11.23;4.53;;;;;;;;;;5065596;28;20311;-59
2023/04/22 08:26:22;;;;;;;8.50;4.30;;;;;;;;;;5065570;28;20036;-58
2023/04/22 08:28:47;;;;;;;13.95;4.68;;;;;;;;;;5065584;28;20023;-59
2023/04/22 08:31:13;;;;;;;6.95;4.13;;;;;;;;;;5065283;28;20024;-58
2023/04/22 08:33:39;;;;;;;8.50;4.70;;;;;;;;;;5065264;28;20028;-57
2023/04/22 08:36:04;;;;;;;14.48;6.10;;;;;;;;;;5064954;28;20273;-57
2023/04/22 08:38:30;;;;;;;16.13;4.88;;;;;;;;;;5065388;28;20059;-59
2023/04/22 08:40:56;;;;;;;12.60;4.73;;;;;;;;;;5065405;28;20043;-55
2023/04/22 08:43:21;;;;;;;13.27;4.68;;;;;;;;;;5065074;28;20306;-59
2023/04/22 08:45:47;;;;;;;10.35;4.65;;;;;;;;;;5064801;28;20082;-59
2023/04/22 08:48:12;;;;;;;10.50;4.93;;;;;;;;;;5065001;28;20502;-59
2023/04/22 08:50:40;;;;;;;8.65;4.53;;;;;;;;;;5065576;28;20103;-58
2023/04/22 08:53:06;;;;;;;14.40;5.57;;;;;;;;;;5065286;28;20074;-59
2023/04/22 08:55:31;;;;;;;8.27;4.60;;;;;;;;;;5062542;28;20032;-58
2023/04/22 08:57:58;;;;;;;5.23;4.27;;;;;;;;;;5064866;28;20272;-59
2023/04/22 09:00:23;;;;;;;8.82;4.15;;;;;;;;;;5064922;28;20256;-59
2023/04/22 09:02:50;;;;;;;6.72;4.68;;;;;;;;;;5064993;28;20028;-59
2023/04/22 09:05:15;;;;;;;8.85;4.35;;;;;;;;;;5064565;28;20028;-59
2023/04/22 09:07:41;;;;;;;6.70;4.43;;;;;;;;;;5065088;28;20361;-57
2023/04/22 09:10:07;;;;;;;7.60;4.30;;;;;;;;;;5063562;28;20146;-58
2023/04/22 09:12:32;;;;;;;6.18;4.40;;;;;;;;;;5064670;28;20051;-58
2023/04/22 09:14:58;;;;;;;10.00;4.70;;;;;;;;;;5064709;28;20463;-57
2023/04/22 09:17:33;;;;;;;11.98;5.20;;;;;;;;;;5064347;28;20487;-57
2023/04/22 09:19:59;;;;;;;8.07;4.75;;;;;;;;;;5064722;28;20228;-59
2023/04/22 09:22:25;;;;;;;12.23;4.47;;;;;;;;;;5064860;28;20104;-58
2023/04/22 09:24:51;;;;;;;10.23;5.07;;;;;;;;;;5064378;28;20020;-59
2023/04/22 09:27:16;;;;;;;8.07;4.93;;;;;;;;;;5064721;28;20040;-60
2023/04/22 09:29:51;;;;;;;7.63;4.20;;;;;;;;;;5065114;28;20905;-59
2023/04/22 09:32:17;;;;;;;12.48;5.32;;;;;;;;;;5063141;28;20483;-59
2023/04/22 09:34:47;;;;;;;10.30;4.70;;;;;;;;;;5064755;28;20020;-60
2023/04/22 09:37:13;;;;;;;6.25;4.20;;;;;;;;;;5064248;28;20035;-60
2023/04/22 09:39:40;;;;;;;12.07;4.82;;;;;;;;;;5064813;28;20024;-60
2023/04/22 09:42:05;;;;;;;5.32;4.03;;;;;;;;;;5064601;28;20025;-59
2023/04/22 09:44:31;;;;;;;8.20;4.50;;;;;;;;;;5064525;28;20468;-60
2023/04/22 09:46:57;;;;;;;6.97;4.68;;;;;;;;;;5064950;28;20449;-58
2023/04/22 09:49:25;;;;;;;6.75;4.13;;;;;;;;;;5064338;28;20609;-60
2023/04/22 09:51:55;;;;;;;8.43;4.87;;;;;;;;;;5064340;28;20521;-60
2023/04/22 09:54:22;;;;;;;6.93;4.13;;;;;;;;;;5064847;28;20253;-58
2023/04/22 09:56:49;;;;;;;8.23;4.68;;;;;;;;;;5064649;28;20393;-60
2023/04/22 09:59:24;;;;;;;6.70;3.95;;;;;;;;;;5061769;28;20345;-60
2023/04/22 10:01:51;;;;;;;7.65;4.25;;;;;;;;;;5064685;28;20021;-57
2023/04/22 10:04:20;;;;;;;7.75;4.15;;;;;;;;;;5064543;28;20025;-59
2023/04/22 10:06:45;;;;;;;6.05;3.78;;;;;;;;;;5064421;28;20033;-60
2023/04/22 10:09:11;;;;;;;9.70;7.28;;;;;;;;;;5064247;28;20535;-59
2023/04/22 10:11:36;;;;;;;392.65;354.63;;;;;;;;;;5063970;28;20448;-56
2023/04/22 10:14:01;;;;;;;12.43;10.57;;;;;;;;;;5064401;28;20487;-60
2023/04/22 10:16:29;;;;;;;207.45;190.40;;;;;;;;;;5063898;28;20025;-59
2023/04/22 10:18:58;;;;;;;515.00;469.45;;;;;;;;;;5064131;28;20129;-58
2023/04/22 10:21:24;;;;;;;416.10;361.90;;;;;;;;;;5063719;28;20024;-60
2023/04/22 10:23:49;;;;;;;54.72;19.85;;;;;;;;;;5063866;28;20021;-58
2023/04/22 10:26:39;;;;;;;7.57;6.38;;;;;;;;;;5063892;28;20032;-60
2023/04/22 10:29:09;;;;;;;26.98;24.80;;;;;;;;;;5041181;28;20132;-60
2023/04/22 10:31:38;;;;;;;143.35;133.25;;;;;;;;;;5040887;28;20091;-60
2023/04/22 10:34:12;;;;;;;142.27;132.32;;;;;;;;;;5040735;28;20060;-59
2023/04/22 10:36:57;;;;;;;1118.28;808.80;;;;;;;;;;5040465;28;20022;-57
2023/04/22 10:39:24;;;;;;;128.15;74.05;;;;;;;;;;5040527;28;20037;-58
2023/04/22 10:41:50;;;;;;;8.15;6.47;;;;;;;;;;5040733;28;20045;-59
2023/04/22 10:44:15;;;;;;;38.85;35.13;;;;;;;;;;5044531;28;20025;-57
2023/04/22 10:46:43;;;;;;;335.23;305.23;;;;;;;;;;5044632;28;20056;-59
2023/04/22 10:49:09;;;;;;;11.00;3.85;;;;;;;;;;5028182;28;21069;-58
2023/04/22 10:51:46;;;;;;;10.38;6.20;;;;;;;;;;5044120;28;20039;-59
2023/04/22 10:54:35;;;;;;;191.73;177.80;;;;;;;;;;5044188;28;20029;-59
2023/04/22 10:57:02;;;;;;;442.00;136.55;;;;;;;;;;5044383;28;20535;-59
2023/04/22 10:59:27;;;;;;;454.25;333.98;;;;;;;;;;5044319;28;20029;-58
2023/04/22 11:01:53;;;;;;;317.33;201.30;;;;;;;;;;5043935;28;20036;-60
2023/04/22 11:04:19;;;;;;;94.45;69.88;;;;;;;;;;5044323;28;20036;-59
2023/04/22 11:06:44;;;;;;;286.23;265.90;;;;;;;;;;5061528;28;20045;-59
2023/04/22 11:09:11;;;;;;;785.53;586.13;;;;;;;;;;5066888;28;20070;-60
2023/04/22 11:11:37;;;;;;;784.75;448.90;;;;;;;;;;5067059;28;20044;-60
2023/04/22 11:14:02;;;;;;;780.30;498.17;;;;;;;;;;5067217;28;20023;-59
2023/04/22 11:16:28;;;;;;;727.70;474.80;;;;;;;;;;5066972;28;20023;-58
2023/04/22 11:18:54;;;;;;;776.78;469.33;;;;;;;;;;5066451;28;20464;-60
2023/04/22 11:21:20;;;;;;;765.25;465.30;;;;;;;;;;5066805;28;20085;-60
2023/04/22 11:23:49;;;;;;;758.47;502.65;;;;;;;;;;5066496;28;20032;-60
2023/04/22 11:26:14;;;;;;;6.22;3.85;;;;;;;;;;5066745;28;20154;-60
2023/04/22 11:28:46;;;;;;;5.85;3.58;;;;;;;;;;5067081;28;20052;-61
2023/04/22 11:31:13;;;;;;;9.07;3.63;;;;;;;;;;5066985;28;20020;-60
2023/04/22 11:33:38;;;;;;;5.88;3.88;;;;;;;;;;5066645;28;20027;-59
2023/04/22 11:36:04;;;;;;;5.63;4.03;;;;;;;;;;5066911;28;20032;-59
2023/04/22 11:38:30;;;;;;;4.80;3.53;;;;;;;;;;5066650;28;20031;-59
2023/04/22 11:40:57;;;;;;;6.22;3.78;;;;;;;;;;5066852;28;20032;-60
2023/04/22 11:43:22;;;;;;;13.48;4.35;;;;;;;;;;5066657;28;20028;-58
2023/04/22 11:45:47;;;;;;;6.03;4.10;;;;;;;;;;5066543;28;20042;-58
2023/04/22 11:48:13;;;;;;;6.20;3.80;;;;;;;;;;5066869;28;20331;-57
2023/04/22 11:50:40;;;;;;;9.18;3.97;;;;;;;;;;5066392;28;20788;-59
2023/04/22 11:53:18;;;;;;;9.50;4.00;;;;;;;;;;5066298;28;20675;-58
2023/04/22 11:55:44;;;;;;;5.55;3.67;;;;;;;;;;5065679;28;20047;-59
2023/04/22 11:58:14;;;;;;;4.90;3.58;;;;;;;;;;5066075;28;20375;-58
2023/04/22 12:00:47;;;;;;;8.60;4.60;;;;;;;;;;5065259;28;20025;-58
2023/04/22 12:03:15;;;;;;;3.90;3.13;;;;;;;;;;5066278;28;20024;-60
2023/04/22 12:05:50;;;;;;;7.18;4.20;;;;;;;;;;5066407;28;20032;-57
2023/04/22 12:08:17;;;;;;;7.18;3.78;;;;;;;;;;5066143;28;20033;-59
2023/04/22 12:10:50;;;;;;;6.85;3.88;;;;;;;;;;5066325;28;20040;-60
2023/04/22 12:13:22;;;;;;;9.55;4.13;;;;;;;;;;5066233;28;20115;-57
2023/04/22 12:15:48;;;;;;;7.72;4.10;;;;;;;;;;5065884;28;20028;-59
2023/04/22 12:18:15;;;;;;;8.77;4.28;;;;;;;;;;5080010;28;20067;-57
2023/04/22 12:20:41;;;;;;;6.70;3.67;;;;;;;;;;5066460;28;20055;-60
2023/04/22 12:23:15;;;;;;;5.82;3.70;;;;;;;;;;5046653;28;20264;-59
2023/04/22 12:25:41;;;;;;;6.10;3.85;;;;;;;;;;5065832;28;20131;-59
2023/04/22 12:28:06;;;;;;;7.25;3.97;;;;;;;;;;5065896;28;20440;-60
2023/04/22 12:30:31;;;;;;;6.95;3.80;;;;;;;;;;5065806;28;20112;-56
2023/04/22 12:32:57;;;;;;;8.00;4.33;;;;;;;;;;5065743;28;20100;-60
2023/04/22 12:35:22;;;;;;;49.30;5.87;;;;;;;;;;5065699;28;20260;-59
2023/04/22 12:37:47;;;;;;;6.87;4.03;;;;;;;;;;5065819;28;20763;-59
2023/04/22 12:40:13;;;;;;;7.73;3.60;;;;;;;;;;5065585;28;20250;-60
2023/04/22 12:42:38;;;;;;;7.03;3.92;;;;;;;;;;5065804;28;20613;-59
2023/04/22 12:45:03;;;;;;;6.10;3.57;;;;;;;;;;5065430;28;20063;-58
2023/04/22 12:47:29;;;;;;;7.57;3.70;;;;;;;;;;5065445;28;20238;-60
2023/04/22 12:49:54;;;;;;;9.32;3.95;;;;;;;;;;5065149;28;20024;-60
2023/04/22 12:52:20;;;;;;;8.05;3.78;;;;;;;;;;5065423;28;20017;-60
2023/04/22 12:54:45;;;;;;;6.30;3.40;;;;;;;;;;5065432;28;20024;-60
2023/04/22 12:57:10;;;;;;;9.40;3.97;;;;;;;;;;5065519;28;20024;-60
2023/04/22 12:59:36;;;;;;;6.28;3.88;;;;;;;;;;5065387;28;20114;-60
2023/04/22 13:02:01;;;;;;;6.80;3.83;;;;;;;;;;5065442;28;20013;-57
2023/04/22 13:04:26;;;;;;;9.23;3.20;;;;;;;;;;5065408;28;20435;-59
2023/04/22 13:06:55;;;;;;;5.90;3.60;;;;;;;;;;5064854;28;20285;-60
2023/04/22 13:09:21;;;;;;;8.77;3.85;;;;;;;;;;5065109;28;20254;-60
2023/04/22 13:11:48;;;;;;;6.05;3.30;;;;;;;;;;5064659;28;20060;-60
2023/04/22 13:14:13;;;;;;;13.27;3.97;;;;;;;;;;5064919;28;20033;-60
2023/04/22 13:16:38;;;;;;;7.25;3.75;;;;;;;;;;5064567;28;20029;-58
2023/04/22 13:19:04;;;;;;;5.10;3.50;;;;;;;;;;5064831;28;20090;-59
2023/04/22 13:21:29;;;;;;;10.23;3.90;;;;;;;;;;5065136;28;20628;-58
2023/04/22 13:23:54;;;;;;;4.85;3.42;;;;;;;;;;5065123;28;20448;-60
2023/04/22 13:26:20;;;;;;;7.30;3.53;;;;;;;;;;5064561;28;20487;-60
2023/04/22 13:28:45;;;;;;;6.43;3.42;;;;;;;;;;5064654;28;20480;-59
2023/04/22 13:31:10;;;;;;;11.27;3.60;;;;;;;;;;5064627;28;20452;-60
2023/04/22 13:33:35;;;;;;;4.93;3.50;;;;;;;;;;5063258;28;20430;-59
2023/04/22 13:36:01;;;;;;;6.67;3.40;;;;;;;;;;5064143;28;20248;-60
2023/04/22 13:38:26;;;;;;;5.68;3.40;;;;;;;;;;5064596;28;20340;-58
2023/04/22 13:40:52;;;;;;;5.38;3.58;;;;;;;;;;5064372;28;20067;-60
2023/04/22 13:43:17;;;;;;;6.22;3.88;;;;;;;;;;5064683;28;20276;-58
2023/04/22 13:45:42;;;;;;;4.93;3.30;;;;;;;;;;5064605;28;20060;-60
2023/04/22 13:48:07;;;;;;;6.95;3.80;;;;;;;;;;5064705;28;20245;-58
2023/04/22 13:50:33;;;;;;;8.88;3.67;;;;;;;;;;5064623;28;20062;-59
2023/04/22 13:52:58;;;;;;;8.23;3.63;;;;;;;;;;5064521;28;20050;-61
2023/04/22 13:55:25;;;;;;;5.70;3.65;;;;;;;;;;5065026;28;20035;-59
2023/04/22 13:57:50;;;;;;;4.68;3.35;;;;;;;;;;5064474;28;20025;-58
2023/04/22 14:00:16;;;;;;;13.80;4.15;;;;;;;;;;5064323;28;20365;-59
2023/04/22 14:02:41;;;;;;;6.82;3.20;;;;;;;;;;5064411;28;20475;-59
2023/04/22 14:05:08;;;;;;;7.57;3.80;;;;;;;;;;5064297;28;20287;-59
2023/04/22 14:07:33;;;;;;;12.18;4.05;;;;;;;;;;5064517;28;20029;-59
2023/04/22 14:09:59;;;;;;;6.93;4.63;;;;;;;;;;5064402;28;20027;-60
2023/04/22 14:12:24;;;;;;;6.60;4.18;;;;;;;;;;5063977;28;20397;-59
2023/04/22 14:14:49;;;;;;;6.15;3.70;;;;;;;;;;5064313;28;20059;-59
2023/04/22 14:17:15;;;;;;;6.53;4.25;;;;;;;;;;5064752;28;20112;-57
2023/04/22 14:19:40;;;;;;;7.65;4.03;;;;;;;;;;5068066;28;20381;-60
2023/04/22 14:22:06;;;;;;;4.78;3.70;;;;;;;;;;5068285;28;20029;-60